Time;durP1;ratioP1;P1;durP2;ratioP2;P2;SDS_P1;SDS_P2;PMS_P1;PMS_P2;Temp;Humidity;BMP_temperature;BMP_pressure;BME280_temperature;BME280_humidity;BME280_pressure;Samples;Min_cycle;Max_cycle;Signal;HPM_P1;HPM_P2
2022/07/09 00:02:18;;;;;;;6.25;2.00;;;16.40;90.60;;;;;;6204324;23;20335;-71
2022/07/09 00:04:44;;;;;;;5.65;1.60;;;16.40;90.50;;;;;;6214114;23;20017;-70
2022/07/09 00:07:09;;;;;;;4.18;1.80;;;16.30;90.40;;;;;;6203983;23;20028;-71
2022/07/09 00:09:35;;;;;;;4.93;1.70;;;16.20;90.50;;;;;;6214235;23;20512;-71
2022/07/09 00:12:01;;;;;;;2.28;1.50;;;16.20;90.60;;;;;;6214211;23;20434;-71
2022/07/09 00:14:27;;;;;;;4.85;1.85;;;16.10;90.80;;;;;;6204176;23;20119;-71
2022/07/09 00:16:52;;;;;;;3.08;1.60;;;16.00;91.00;;;;;;6203420;23;20505;-71
2022/07/09 00:19:18;;;;;;;8.25;1.83;;;16.00;91.00;;;;;;6203723;23;20009;-71
2022/07/09 00:21:44;;;;;;;2.72;1.60;;;16.00;91.10;;;;;;6204296;23;20008;-72
2022/07/09 00:24:10;;;;;;;4.20;2.10;;;16.00;91.10;;;;;;6213943;23;20075;-71
2022/07/09 00:26:36;;;;;;;5.30;1.60;;;15.90;91.30;;;;;;6202405;23;20391;-72
2022/07/09 00:29:01;;;;;;;2.33;1.60;;;15.90;91.20;;;;;;6201966;23;20005;-71
2022/07/09 00:31:27;;;;;;;4.15;1.92;;;15.90;91.20;;;;;;6202912;23;20009;-71
2022/07/09 00:33:54;;;;;;;3.40;2.08;;;15.90;91.30;;;;;;6213948;23;20016;-71
2022/07/09 00:36:19;;;;;;;2.80;1.63;;;15.80;91.40;;;;;;6213119;23;20704;-71
2022/07/09 00:38:45;;;;;;;3.72;1.85;;;15.80;91.40;;;;;;6202756;23;20040;-71
2022/07/09 00:41:11;;;;;;;8.00;2.17;;;15.80;91.40;;;;;;6203987;23;20009;-72
2022/07/09 00:43:37;;;;;;;4.85;1.88;;;15.80;91.30;;;;;;6203320;23;20494;-71
2022/07/09 00:46:02;;;;;;;5.93;1.75;;;15.80;91.30;;;;;;6203520;23;20398;-71
2022/07/09 00:48:28;;;;;;;4.93;2.25;;;15.80;91.10;;;;;;6202453;23;20070;-71
2022/07/09 00:50:54;;;;;;;5.05;2.05;;;15.80;90.80;;;;;;6203494;23;20508;-72
2022/07/09 00:53:24;;;;;;;3.83;1.80;;;15.80;90.90;;;;;;6202644;23;20008;-70
2022/07/09 00:55:51;;;;;;;6.57;2.25;;;15.80;90.80;;;;;;6202219;23;20124;-71
2022/07/09 00:58:19;;;;;;;5.22;2.28;;;15.80;90.80;;;;;;6203109;23;20083;-71
2022/07/09 01:00:45;;;;;;;5.47;1.55;;;15.80;90.70;;;;;;6204034;23;20016;-72
2022/07/09 01:03:11;;;;;;;7.55;2.08;;;15.70;90.60;;;;;;6203985;23;20039;-71
2022/07/09 01:05:36;;;;;;;8.65;2.30;;;15.70;90.50;;;;;;6213668;23;20418;-71
2022/07/09 01:08:07;;;;;;;3.65;1.75;;;15.70;90.50;;;;;;6203077;23;20442;-71
2022/07/09 01:10:35;;;;;;;4.47;1.63;;;15.70;90.60;;;;;;6204095;23;20629;-71
2022/07/09 01:13:02;;;;;;;3.92;2.08;;;15.70;90.60;;;;;;6203503;23;20144;-71
2022/07/09 01:15:29;;;;;;;5.55;1.63;;;15.60;90.70;;;;;;6203386;23;20473;-71
2022/07/09 01:17:55;;;;;;;3.58;1.80;;;15.60;90.70;;;;;;6203199;23;20016;-72
2022/07/09 01:20:29;;;;;;;3.40;1.90;;;15.60;90.80;;;;;;6213034;23;20507;-72
2022/07/09 01:22:55;;;;;;;7.57;2.10;;;15.50;91.10;;;;;;6202979;23;20016;-72
2022/07/09 01:25:36;;;;;;;5.55;2.00;;;15.40;90.90;;;;;;6212884;23;20008;-72
2022/07/09 01:28:05;;;;;;;3.30;1.65;;;15.50;91.10;;;;;;6212284;23;20012;-72
2022/07/09 01:30:32;;;;;;;3.92;1.60;;;15.40;91.10;;;;;;6202509;23;20016;-70
2022/07/09 01:32:59;;;;;;;8.80;3.03;;;15.40;91.30;;;;;;6213344;23;20012;-71
2022/07/09 01:35:25;;;;;;;6.03;2.28;;;15.30;91.30;;;;;;6203120;23;20013;-72
2022/07/09 01:37:51;;;;;;;4.45;1.85;;;15.30;91.30;;;;;;6202901;23;20004;-71
2022/07/09 01:40:17;;;;;;;3.35;2.10;;;15.30;91.40;;;;;;6202994;23;20047;-71
2022/07/09 01:42:42;;;;;;;5.47;2.15;;;15.30;91.30;;;;;;6201877;23;20009;-71
2022/07/09 01:45:09;;;;;;;8.20;2.03;;;15.30;91.40;;;;;;6213364;23;20008;-72
2022/07/09 01:47:35;;;;;;;2.55;2.10;;;15.30;91.30;;;;;;6212801;23;20013;-71
2022/07/09 01:50:01;;;;;;;5.97;2.17;;;15.20;91.30;;;;;;6202823;23;20059;-71
2022/07/09 01:52:29;;;;;;;4.97;1.80;;;15.20;91.40;;;;;;6202915;23;20396;-72
2022/07/09 01:54:54;;;;;;;4.80;2.40;;;15.20;91.40;;;;;;6213156;23;20500;-71
2022/07/09 01:57:20;;;;;;;5.30;1.92;;;15.10;91.30;;;;;;6202151;23;20083;-71
2022/07/09 01:59:46;;;;;;;8.85;2.22;;;15.10;91.40;;;;;;6202880;23;20004;-72
2022/07/09 02:02:11;;;;;;;4.88;2.38;;;15.10;91.40;;;;;;6200310;23;20015;-71
2022/07/09 02:04:38;;;;;;;3.17;2.10;;;15.10;91.50;;;;;;6203320;23;20012;-71
2022/07/09 02:07:04;;;;;;;6.80;2.33;;;15.10;91.70;;;;;;6203216;23;20020;-71
2022/07/09 02:09:30;;;;;;;5.47;2.60;;;15.20;91.90;;;;;;6203186;23;20009;-71
2022/07/09 02:11:56;;;;;;;6.95;2.58;;;15.20;92.00;;;;;;6202926;23;20013;-71
2022/07/09 02:14:22;;;;;;;6.97;2.78;;;15.30;92.00;;;;;;6213250;23;20012;-71
2022/07/09 02:16:48;;;;;;;7.13;2.90;;;15.40;92.00;;;;;;6202914;23;20513;-72
2022/07/09 02:19:14;;;;;;;7.57;2.20;;;15.40;91.90;;;;;;6202870;23;20585;-71
2022/07/09 02:21:40;;;;;;;11.50;3.88;;;15.50;91.90;;;;;;6213236;23;20008;-71
2022/07/09 02:24:07;;;;;;;5.90;3.38;;;15.60;91.80;;;;;;6213290;23;20011;-72
2022/07/09 02:26:33;;;;;;;9.00;3.05;;;15.60;91.30;;;;;;6212424;23;20087;-71
2022/07/09 02:28:59;;;;;;;7.97;3.28;;;15.70;91.00;;;;;;6203370;23;20082;-71
2022/07/09 02:31:26;;;;;;;12.05;3.45;;;15.80;90.90;;;;;;6202433;23;20005;-71
2022/07/09 02:33:52;;;;;;;9.55;2.75;;;15.90;90.80;;;;;;6211364;23;20677;-71
2022/07/09 02:36:18;;;;;;;5.85;3.13;;;15.90;90.60;;;;;;6201820;23;20434;-71
2022/07/09 02:38:44;;;;;;;7.45;2.75;;;15.90;90.50;;;;;;6201816;23;20004;-71
2022/07/09 02:41:10;;;;;;;7.25;3.15;;;16.00;90.30;;;;;;6201926;23;20350;-71
2022/07/09 02:43:36;;;;;;;8.88;3.38;;;16.00;90.20;;;;;;6199662;23;20465;-71
2022/07/09 02:46:03;;;;;;;6.28;3.20;;;16.00;90.20;;;;;;6212240;23;20013;-71
2022/07/09 02:48:29;;;;;;;8.32;3.08;;;16.10;90.00;;;;;;6201144;23;20036;-71
2022/07/09 02:50:55;;;;;;;8.80;2.97;;;16.10;89.90;;;;;;6212569;23;20346;-71
2022/07/09 02:53:21;;;;;;;6.78;2.78;;;16.10;89.80;;;;;;6202105;23;20016;-71
2022/07/09 02:55:47;;;;;;;10.10;3.38;;;16.20;89.40;;;;;;6202318;23;20444;-71
2022/07/09 02:58:13;;;;;;;4.38;3.03;;;16.20;89.10;;;;;;6201921;23;20297;-71
2022/07/09 03:00:40;;;;;;;8.65;3.10;;;16.20;89.00;;;;;;6202217;23;20012;-71
2022/07/09 03:03:07;;;;;;;6.55;2.67;;;16.20;88.50;;;;;;6202494;23;20591;-71
2022/07/09 03:05:33;;;;;;;7.40;3.05;;;16.20;88.80;;;;;;6202773;23;20016;-72
2022/07/09 03:07:59;;;;;;;5.40;2.40;;;16.20;89.00;;;;;;6201665;23;20017;-71
2022/07/09 03:10:25;;;;;;;5.22;2.47;;;16.20;88.70;;;;;;6212207;23;20024;-71
2022/07/09 03:12:51;;;;;;;6.85;3.00;;;16.20;88.70;;;;;;6212407;23;20086;-70
2022/07/09 03:15:17;;;;;;;6.85;2.92;;;16.30;88.60;;;;;;6212756;23;20535;-71
2022/07/09 03:17:43;;;;;;;7.05;3.35;;;16.30;88.80;;;;;;6213905;23;20437;-71
2022/07/09 03:20:10;;;;;;;8.10;3.25;;;16.30;88.50;;;;;;6214462;23;20001;-71
2022/07/09 03:22:36;;;;;;;3.63;2.45;;;16.30;88.40;;;;;;6204241;23;20028;-71
2022/07/09 03:25:03;;;;;;;6.05;2.67;;;16.30;88.20;;;;;;6214693;23;20009;-71
2022/07/09 03:27:29;;;;;;;8.13;2.88;;;16.30;88.10;;;;;;6214036;23;20034;-71
2022/07/09 03:29:55;;;;;;;10.60;3.20;;;16.40;88.10;;;;;;6204699;23;20019;-71
2022/07/09 03:32:21;;;;;;;7.50;2.92;;;16.30;88.00;;;;;;6203698;23;20646;-71
2022/07/09 03:34:47;;;;;;;8.68;3.22;;;16.40;87.90;;;;;;6214685;23;20067;-71
2022/07/09 03:37:13;;;;;;;5.97;3.00;;;16.40;88.00;;;;;;6204157;23;20016;-72
2022/07/09 03:39:39;;;;;;;5.75;2.60;;;16.40;87.70;;;;;;6204330;23;20004;-72
2022/07/09 03:42:06;;;;;;;11.55;3.42;;;16.40;88.00;;;;;;6204675;23;20083;-71
2022/07/09 03:44:33;;;;;;;4.28;2.63;;;16.40;87.80;;;;;;6204826;23;20012;-71
2022/07/09 03:46:59;;;;;;;9.32;3.10;;;16.50;87.70;;;;;;6202532;23;20011;-72
2022/07/09 03:49:25;;;;;;;5.50;3.05;;;16.50;87.20;;;;;;6214502;23;20005;-72
2022/07/09 03:51:52;;;;;;;11.32;3.25;;;16.50;87.40;;;;;;6214750;23;20001;-72
2022/07/09 03:54:18;;;;;;;5.70;2.78;;;16.50;87.40;;;;;;6204061;23;20035;-71
2022/07/09 03:56:43;;;;;;;5.53;2.75;;;16.50;87.40;;;;;;6203515;23;20431;-71
2022/07/09 03:59:09;;;;;;;7.20;3.10;;;16.50;87.50;;;;;;6204174;23;20067;-72
2022/07/09 04:01:35;;;;;;;4.60;2.60;;;16.60;87.50;;;;;;6202698;23;20009;-72
2022/07/09 04:04:01;;;;;;;9.73;3.70;;;16.50;87.10;;;;;;6204268;23;20008;-72
2022/07/09 04:06:27;;;;;;;7.75;3.20;;;16.60;87.30;;;;;;6204304;23;20146;-71
2022/07/09 04:08:52;;;;;;;5.90;2.80;;;16.60;87.00;;;;;;6204084;23;20087;-71
2022/07/09 04:11:18;;;;;;;6.47;3.10;;;16.60;87.10;;;;;;6213435;23;20032;-72
2022/07/09 04:13:44;;;;;;;6.57;3.00;;;16.60;86.90;;;;;;6203960;23;20020;-71
2022/07/09 04:16:10;;;;;;;6.03;3.38;;;16.60;87.00;;;;;;6213768;23;20012;-71
2022/07/09 04:18:36;;;;;;;6.93;3.40;;;16.60;87.10;;;;;;6203489;23;20013;-71
2022/07/09 04:21:02;;;;;;;7.43;3.38;;;16.70;87.00;;;;;;6204008;23;20086;-71
2022/07/09 04:23:28;;;;;;;6.35;3.42;;;16.70;86.90;;;;;;6213858;23;20000;-71
2022/07/09 04:25:54;;;;;;;9.00;4.05;;;16.70;86.80;;;;;;6203600;23;20066;-71
2022/07/09 04:28:20;;;;;;;4.85;3.10;;;16.70;87.00;;;;;;6203544;23;20012;-71
2022/07/09 04:30:46;;;;;;;7.05;2.97;;;16.80;87.20;;;;;;6203647;23;20034;-72
2022/07/09 04:33:12;;;;;;;7.03;2.90;;;16.80;87.10;;;;;;6203129;23;20012;-71
2022/07/09 04:35:38;;;;;;;5.72;2.83;;;16.80;87.30;;;;;;6213943;23;20027;-71
2022/07/09 04:38:04;;;;;;;6.93;2.72;;;16.80;87.20;;;;;;6201698;23;20009;-71
2022/07/09 04:40:30;;;;;;;6.53;2.90;;;16.80;87.30;;;;;;6213232;23;20005;-71
2022/07/09 04:42:56;;;;;;;11.15;3.17;;;16.80;87.00;;;;;;6202909;23;20092;-72
2022/07/09 04:45:22;;;;;;;8.00;3.10;;;16.90;87.00;;;;;;6213502;23;20112;-71
2022/07/09 04:47:48;;;;;;;8.25;2.80;;;16.90;87.10;;;;;;6213088;23;20008;-71
2022/07/09 04:50:14;;;;;;;8.02;2.92;;;16.90;87.10;;;;;;6203678;23;20437;-72
2022/07/09 04:52:40;;;;;;;5.75;2.45;;;16.90;87.10;;;;;;6203727;23;20103;-71
2022/07/09 04:55:07;;;;;;;9.15;2.90;;;16.90;87.10;;;;;;6203141;23;20046;-71
2022/07/09 04:57:33;;;;;;;3.75;2.28;;;16.90;86.90;;;;;;6203773;23;20008;-71
2022/07/09 05:00:03;;;;;;;7.57;2.50;;;16.90;87.10;;;;;;6202290;23;20082;-72
2022/07/09 05:02:29;;;;;;;5.35;2.80;;;16.90;87.00;;;;;;6203587;23;20008;-71
2022/07/09 05:04:55;;;;;;;5.25;2.58;;;16.90;87.00;;;;;;6204042;23;20063;-72
2022/07/09 05:07:21;;;;;;;8.35;2.72;;;16.90;87.00;;;;;;6203861;23;20012;-71
2022/07/09 05:09:46;;;;;;;9.27;3.28;;;17.00;87.20;;;;;;6213446;23;20015;-71
2022/07/09 05:12:12;;;;;;;7.72;2.75;;;16.90;87.00;;;;;;6213901;23;20012;-71
2022/07/09 05:14:38;;;;;;;6.03;2.58;;;16.90;87.00;;;;;;6203114;23;20112;-71
2022/07/09 05:17:05;;;;;;;6.65;2.60;;;17.00;87.30;;;;;;6202978;23;20012;-71
2022/07/09 05:19:32;;;;;;;7.80;3.20;;;17.00;87.30;;;;;;6201809;23;20504;-72
2022/07/09 05:21:57;;;;;;;10.00;3.13;;;17.00;87.70;;;;;;6204261;23;20028;-72
2022/07/09 05:24:23;;;;;;;5.60;2.80;;;17.00;87.20;;;;;;6204026;23;20047;-71
2022/07/09 05:26:49;;;;;;;8.10;2.90;;;17.10;87.40;;;;;;6213128;23;20004;-71
2022/07/09 05:29:16;;;;;;;5.35;3.22;;;17.10;87.20;;;;;;6203836;23;20013;-71
2022/07/09 05:31:42;;;;;;;5.57;2.65;;;17.10;87.00;;;;;;6213086;23;20030;-72
2022/07/09 05:34:08;;;;;;;5.97;2.70;;;17.10;87.20;;;;;;6203877;23;20035;-71
2022/07/09 05:36:34;;;;;;;5.30;2.20;;;17.10;87.20;;;;;;6203235;23;20439;-71
2022/07/09 05:39:00;;;;;;;7.57;2.85;;;17.20;87.00;;;;;;6203333;23;20015;-71
2022/07/09 05:41:27;;;;;;;7.60;2.58;;;17.20;86.60;;;;;;6213685;23;20735;-72
2022/07/09 05:43:53;;;;;;;6.97;2.97;;;17.20;87.00;;;;;;6203781;23;20358;-71
2022/07/09 05:46:20;;;;;;;5.40;2.38;;;17.20;86.80;;;;;;6203581;23;20020;-71
2022/07/09 05:48:46;;;;;;;6.47;2.20;;;17.20;86.70;;;;;;6200448;23;20016;-72
2022/07/09 05:51:12;;;;;;;6.13;2.70;;;17.20;86.60;;;;;;6202595;23;20070;-71
2022/07/09 05:53:38;;;;;;;4.60;2.80;;;17.30;86.70;;;;;;6212080;23;20015;-71
2022/07/09 05:56:04;;;;;;;9.18;3.30;;;17.40;86.50;;;;;;6212442;23;20012;-72
2022/07/09 05:58:30;;;;;;;5.05;2.78;;;17.50;85.90;;;;;;6202596;23;20008;-72
2022/07/09 06:00:56;;;;;;;5.90;2.25;;;17.70;85.50;;;;;;6202090;23;20001;-70
2022/07/09 06:03:21;;;;;;;4.85;2.83;;;17.70;85.00;;;;;;6203256;23;20008;-71
2022/07/09 06:05:47;;;;;;;5.45;2.33;;;17.80;84.20;;;;;;6203039;23;20009;-72
2022/07/09 06:08:13;;;;;;;9.13;2.55;;;17.80;84.30;;;;;;6203147;23;20020;-71
2022/07/09 06:10:39;;;;;;;7.43;2.75;;;17.90;84.00;;;;;;6203813;23;20009;-71
2022/07/09 06:13:05;;;;;;;6.75;3.13;;;18.00;84.10;;;;;;6213411;23;20485;-71
2022/07/09 06:15:30;;;;;;;7.90;3.15;;;18.10;84.00;;;;;;6213517;23;20016;-70
2022/07/09 06:17:56;;;;;;;4.38;2.90;;;18.00;82.80;;;;;;6203543;23;20080;-72
2022/07/09 06:20:22;;;;;;;5.68;2.72;;;18.10;83.50;;;;;;6212779;23;20001;-71
2022/07/09 06:22:48;;;;;;;6.38;3.10;;;18.10;82.90;;;;;;6203369;23;20669;-71
2022/07/09 06:25:13;;;;;;;7.05;2.60;;;18.20;82.60;;;;;;6203523;23;20454;-73
2022/07/09 06:27:42;;;;;;;6.10;2.55;;;18.30;82.50;;;;;;6200340;23;20458;-72
2022/07/09 06:30:08;;;;;;;7.28;2.85;;;18.40;82.10;;;;;;6202349;23;20012;-71
2022/07/09 06:32:35;;;;;;;8.25;3.13;;;18.40;82.20;;;;;;6201713;23;20023;-72
2022/07/09 06:35:00;;;;;;;6.03;2.30;;;18.50;81.80;;;;;;6201824;23;20016;-72
2022/07/09 06:37:26;;;;;;;8.60;2.63;;;18.50;80.80;;;;;;6202164;23;20004;-71
2022/07/09 06:39:55;;;;;;;6.38;2.70;;;18.50;81.20;;;;;;6202116;23;20087;-71
2022/07/09 06:42:21;;;;;;;8.45;2.60;;;18.60;81.20;;;;;;6201777;23;20008;-71
2022/07/09 06:44:56;;;;;;;8.73;3.15;;;18.60;80.50;;;;;;6199659;23;20505;-68
2022/07/09 06:47:22;;;;;;;5.75;2.53;;;18.70;80.80;;;;;;6201682;23;20040;-69
2022/07/09 06:49:48;;;;;;;4.57;2.58;;;18.80;80.90;;;;;;6202445;23;20406;-70
2022/07/09 06:52:13;;;;;;;4.57;1.98;;;18.90;79.70;;;;;;6203440;23;20005;-70
2022/07/09 06:54:39;;;;;;;7.53;2.85;;;18.90;79.80;;;;;;6202403;23;20890;-70
2022/07/09 06:57:06;;;;;;;7.32;2.67;;;19.00;79.50;;;;;;6204102;23;20020;-70
2022/07/09 06:59:32;;;;;;;7.53;2.13;;;19.10;79.00;;;;;;6204181;23;20036;-69
2022/07/09 07:01:58;;;;;;;8.70;2.90;;;19.20;79.60;;;;;;6213939;23;20110;-69
2022/07/09 07:04:25;;;;;;;7.70;2.65;;;19.30;77.70;;;;;;6203822;23;20036;-70
2022/07/09 07:06:50;;;;;;;6.07;2.17;;;19.30;77.70;;;;;;6203891;23;20083;-70
2022/07/09 07:09:21;;;;;;;5.25;2.70;;;19.40;78.00;;;;;;6214355;23;20028;-70
2022/07/09 07:11:48;;;;;;;5.15;2.47;;;19.50;77.40;;;;;;6204394;23;20378;-67
2022/07/09 07:14:15;;;;;;;8.40;3.00;;;19.60;77.40;;;;;;6203559;23;20097;-74
2022/07/09 07:16:41;;;;;;;6.13;2.45;;;19.70;77.10;;;;;;6203521;23;20525;-74
2022/07/09 07:19:07;;;;;;;7.35;2.47;;;19.70;76.60;;;;;;6204182;23;20015;-76
2022/07/09 07:21:32;;;;;;;5.60;2.10;;;19.70;75.90;;;;;;6200544;23;20008;-74
2022/07/09 07:23:58;;;;;;;8.20;4.22;;;19.90;75.80;;;;;;6203808;23;20008;-75
2022/07/09 07:26:24;;;;;;;13.57;7.13;;;19.90;76.00;;;;;;6200763;23;20703;-74
2022/07/09 07:28:50;;;;;;;8.00;3.00;;;20.00;75.70;;;;;;6203309;23;20015;-74
2022/07/09 07:31:16;;;;;;;3.70;2.40;;;20.10;75.00;;;;;;6213789;23;20537;-74
2022/07/09 07:33:42;;;;;;;5.47;2.28;;;20.10;74.80;;;;;;6204320;23;20020;-75
2022/07/09 07:36:08;;;;;;;6.82;2.15;;;20.00;76.00;;;;;;6203656;23;20008;-75
2022/07/09 07:38:34;;;;;;;3.97;1.67;;;20.00;75.80;;;;;;6203998;23;20015;-75
2022/07/09 07:41:00;;;;;;;4.15;2.10;;;20.10;76.00;;;;;;6214733;23;20004;-71
2022/07/09 07:43:26;;;;;;;7.22;2.17;;;20.10;75.50;;;;;;6203900;23;20029;-73
2022/07/09 07:45:52;;;;;;;5.40;1.98;;;20.00;75.20;;;;;;6214810;23;20008;-73
2022/07/09 07:48:18;;;;;;;6.90;3.40;;;20.10;74.60;;;;;;6203259;23;20009;-73
2022/07/09 07:50:44;;;;;;;8.15;3.83;;;20.10;74.90;;;;;;6204479;23;20276;-74
2022/07/09 07:53:10;;;;;;;7.10;3.78;;;20.20;74.90;;;;;;6201778;23;20462;-73
2022/07/09 07:55:36;;;;;;;6.95;3.47;;;20.30;74.70;;;;;;6203102;23;20103;-79
2022/07/09 07:58:02;;;;;;;6.38;2.22;;;20.40;74.40;;;;;;6203418;23;20096;-74
2022/07/09 08:00:27;;;;;;;4.28;2.35;;;20.30;73.80;;;;;;6203366;23;20005;-74
2022/07/09 08:02:54;;;;;;;5.85;2.65;;;20.30;74.60;;;;;;6204168;23;20038;-73
2022/07/09 08:05:20;;;;;;;4.80;2.38;;;20.30;74.90;;;;;;6203699;23;20466;-73
2022/07/09 08:07:46;;;;;;;3.67;1.73;;;20.30;74.60;;;;;;6203461;23;20020;-73
2022/07/09 08:10:11;;;;;;;6.57;1.90;;;20.20;74.00;;;;;;6203994;23;20020;-74
2022/07/09 08:12:37;;;;;;;4.25;1.75;;;20.00;74.60;;;;;;6203786;23;20012;-73
2022/07/09 08:15:04;;;;;;;8.50;2.20;;;20.00;75.60;;;;;;6203402;23;20688;-74
2022/07/09 08:17:30;;;;;;;6.82;2.20;;;20.00;75.30;;;;;;6213000;23;20008;-74
2022/07/09 08:19:55;;;;;;;6.05;2.05;;;19.90;75.40;;;;;;6202227;23;20100;-73
2022/07/09 08:22:21;;;;;;;6.55;2.30;;;19.80;76.00;;;;;;6212597;23;20088;-73
2022/07/09 08:24:47;;;;;;;9.38;2.35;;;19.80;76.90;;;;;;6201243;23;20755;-73
2022/07/09 08:27:13;;;;;;;7.13;2.95;;;19.90;76.40;;;;;;6210154;23;20013;-73
2022/07/09 08:29:38;;;;;;;5.43;2.63;;;20.00;76.60;;;;;;6202665;23;20442;-73
2022/07/09 08:32:05;;;;;;;8.40;3.20;;;20.20;75.70;;;;;;6203171;23;20028;-73
2022/07/09 08:34:31;;;;;;;8.48;3.22;;;20.30;75.50;;;;;;6202589;23;20103;-73
2022/07/09 08:36:56;;;;;;;8.05;4.95;;;20.30;74.50;;;;;;6201505;23;20107;-73
2022/07/09 08:39:22;;;;;;;11.25;5.60;;;20.20;75.60;;;;;;6202968;23;20079;-73
2022/07/09 08:41:48;;;;;;;7.75;3.78;;;20.20;75.70;;;;;;6202785;23;20803;-73
2022/07/09 08:44:19;;;;;;;12.85;5.43;;;20.20;75.40;;;;;;6212420;23;20054;-73
2022/07/09 08:46:45;;;;;;;6.13;3.67;;;20.00;76.60;;;;;;6212975;23;20012;-73
2022/07/09 08:49:14;;;;;;;8.10;3.05;;;20.00;76.60;;;;;;6203386;23;20021;-73
2022/07/09 08:51:41;;;;;;;4.25;2.50;;;19.90;76.50;;;;;;6203616;23;20016;-73
2022/07/09 08:54:08;;;;;;;7.63;3.08;;;20.00;76.60;;;;;;6203592;23;20022;-73
2022/07/09 08:56:34;;;;;;;7.75;2.83;;;20.10;77.10;;;;;;6212680;23;20017;-73
2022/07/09 08:58:59;;;;;;;5.53;2.80;;;20.30;76.40;;;;;;6203117;23;20062;-73
2022/07/09 09:01:27;;;;;;;5.00;2.47;;;20.40;74.50;;;;;;6202548;23;19997;-73
2022/07/09 09:03:54;;;;;;;4.88;2.38;;;20.30;74.80;;;;;;6201130;23;20012;-73
2022/07/09 09:06:23;;;;;;;6.95;2.40;;;20.20;75.10;;;;;;6212578;23;20021;-73
2022/07/09 09:08:53;;;;;;;5.15;2.08;;;20.10;75.70;;;;;;6203114;23;20012;-73
2022/07/09 09:11:24;;;;;;;6.70;2.47;;;20.00;76.60;;;;;;6211011;23;20005;-75
2022/07/09 09:13:51;;;;;;;5.88;2.53;;;20.00;76.80;;;;;;6202607;23;20012;-73
2022/07/09 09:16:19;;;;;;;4.72;2.20;;;20.10;76.90;;;;;;6201795;23;20012;-73
2022/07/09 09:18:47;;;;;;;8.00;3.55;;;20.20;76.90;;;;;;6203184;23;20028;-73
2022/07/09 09:21:14;;;;;;;4.60;2.65;;;20.30;76.20;;;;;;6202976;23;20028;-74
2022/07/09 09:23:45;;;;;;;9.75;4.15;;;20.30;76.20;;;;;;6201428;23;20009;-74
2022/07/09 09:26:22;;;;;;;6.13;3.40;;;20.20;75.40;;;;;;6213382;23;20091;-74
2022/07/09 09:28:53;;;;;;;5.25;3.08;;;20.10;76.00;;;;;;6202035;23;20418;-74
2022/07/09 09:31:30;;;;;;;6.47;3.47;;;20.10;76.50;;;;;;6212594;23;20767;-74
2022/07/09 09:34:09;;;;;;;7.55;3.65;;;20.20;77.10;;;;;;6201945;23;20594;-74
2022/07/09 09:36:37;;;;;;;3.03;2.55;;;20.20;77.00;;;;;;6200633;23;20028;-74
2022/07/09 09:39:25;;;;;;;4.43;2.58;;;20.20;77.30;;;;;;6202260;23;20338;-73
2022/07/09 09:42:02;;;;;;;7.97;3.70;;;20.30;76.50;;;;;;6202473;23;20716;-74
2022/07/09 09:44:37;;;;;;;6.85;3.85;;;20.40;76.90;;;;;;6202616;23;20016;-74
2022/07/09 09:47:05;;;;;;;5.95;2.80;;;20.60;75.70;;;;;;6202381;23;20016;-74
2022/07/09 09:49:30;;;;;;;7.50;2.28;;;20.60;75.40;;;;;;6203016;23;20017;-74
2022/07/09 09:52:10;;;;;;;4.57;2.65;;;20.60;75.40;;;;;;6212497;23;20005;-74
2022/07/09 09:54:39;;;;;;;4.85;2.67;;;20.60;75.00;;;;;;6202196;23;20615;-74
2022/07/09 09:57:08;;;;;;;9.02;3.35;;;20.70;75.50;;;;;;6201014;23;20039;-74
2022/07/09 09:59:37;;;;;;;6.60;2.70;;;20.80;75.50;;;;;;6213224;23;20024;-74
2022/07/09 10:02:06;;;;;;;5.40;2.47;;;20.80;75.40;;;;;;6202870;23;20040;-74
2022/07/09 10:04:32;;;;;;;5.78;2.67;;;20.90;75.60;;;;;;6211480;23;20001;-74
2022/07/09 10:06:58;;;;;;;5.13;1.90;;;21.00;74.20;;;;;;6202127;23;20036;-74
2022/07/09 10:09:24;;;;;;;6.55;2.13;;;21.00;74.00;;;;;;6202226;23;20594;-74
2022/07/09 10:11:50;;;;;;;5.68;2.50;;;21.20;74.30;;;;;;6201921;23;20016;-74
2022/07/09 10:14:25;;;;;;;4.43;1.85;;;21.30;72.70;;;;;;6202383;23;20005;-74
2022/07/09 10:16:52;;;;;;;4.53;2.17;;;21.40;72.40;;;;;;6201157;23;20116;-74
2022/07/09 10:19:29;;;;;;;4.70;1.90;;;21.40;72.10;;;;;;6202328;23;20354;-74
2022/07/09 10:21:59;;;;;;;5.32;2.30;;;21.50;72.20;;;;;;6202108;23;20071;-75
2022/07/09 10:24:28;;;;;;;4.47;1.95;;;21.50;71.90;;;;;;6211657;23;20130;-75
2022/07/09 10:27:08;;;;;;;5.65;2.10;;;21.60;71.90;;;;;;6200967;23;20009;-74
2022/07/09 10:29:50;;;;;;;4.13;1.70;;;21.70;71.30;;;;;;6212843;23;20342;-75
2022/07/09 10:32:30;;;;;;;7.43;2.40;;;21.70;70.90;;;;;;6202256;23;20019;-75
2022/07/09 10:35:04;;;;;;;4.20;2.00;;;21.80;71.80;;;;;;6200513;23;20009;-75
2022/07/09 10:37:31;;;;;;;3.47;1.63;;;21.90;70.80;;;;;;6201799;23;20015;-74
2022/07/09 10:40:04;;;;;;;4.78;1.70;;;22.00;70.90;;;;;;6202947;23;20004;-75
2022/07/09 10:42:30;;;;;;;3.90;1.70;;;22.10;70.10;;;;;;6202831;23;20013;-77
2022/07/09 10:44:55;;;;;;;2.95;1.55;;;22.10;70.80;;;;;;6202431;23;20361;-75
2022/07/09 10:47:21;;;;;;;3.53;1.40;;;22.20;68.60;;;;;;6200421;23;20012;-75
2022/07/09 10:49:47;;;;;;;4.32;1.75;;;22.20;68.60;;;;;;6212536;23;20018;-75
2022/07/09 10:52:13;;;;;;;1.83;1.25;;;22.20;70.40;;;;;;6203466;23;20027;-74
2022/07/09 10:54:47;;;;;;;1.90;1.25;;;22.40;69.20;;;;;;6211133;23;20694;-75
2022/07/09 10:57:13;;;;;;;3.90;1.70;;;22.40;68.60;;;;;;6200022;23;20005;-71
2022/07/09 10:59:45;;;;;;;5.38;1.23;;;22.40;67.70;;;;;;6199639;23;20009;-74
2022/07/09 11:02:38;;;;;;;2.05;1.23;;;22.40;67.80;;;;;;6201325;23;20008;-76
2022/07/09 11:05:04;;;;;;;2.30;1.38;;;22.30;67.80;;;;;;6197999;23;20104;-75
2022/07/09 11:07:31;;;;;;;2.33;1.38;;;22.30;68.60;;;;;;6200732;23;20012;-76
2022/07/09 11:09:57;;;;;;;1.63;1.10;;;22.30;68.70;;;;;;6201649;23;20560;-76
2022/07/09 11:12:23;;;;;;;4.97;2.03;;;22.10;69.30;;;;;;6202231;23;20040;-75
2022/07/09 11:14:50;;;;;;;3.55;1.38;;;22.00;67.80;;;;;;6211334;23;20084;-75
2022/07/09 11:17:20;;;;;;;1.90;1.13;;;21.90;68.90;;;;;;6201254;23;20015;-75
2022/07/09 11:19:48;;;;;;;2.95;1.27;;;22.10;69.70;;;;;;6199711;23;20018;-74
2022/07/09 11:22:17;;;;;;;3.30;1.40;;;22.20;69.90;;;;;;6201774;23;20013;-75
2022/07/09 11:24:43;;;;;;;3.92;1.30;;;22.40;69.40;;;;;;6200744;23;20000;-75
2022/07/09 11:27:09;;;;;;;2.90;1.30;;;22.60;69.20;;;;;;6200269;23;20077;-75
2022/07/09 11:29:36;;;;;;;2.92;1.38;;;22.70;66.70;;;;;;6201632;23;20012;-76
2022/07/09 11:32:03;;;;;;;2.50;1.10;;;22.70;65.90;;;;;;6200667;23;20036;-75
2022/07/09 11:34:29;;;;;;;5.05;1.40;;;22.70;66.20;;;;;;6200882;23;20079;-74
2022/07/09 11:36:57;;;;;;;5.55;1.20;;;22.80;67.90;;;;;;6212568;23;20015;-75
2022/07/09 11:39:32;;;;;;;2.58;1.50;;;23.00;66.00;;;;;;6203274;23;20008;-75
2022/07/09 11:41:59;;;;;;;1.92;1.40;;;23.10;65.80;;;;;;6202991;23;20005;-74
2022/07/09 11:44:30;;;;;;;4.43;1.45;;;23.10;65.80;;;;;;6203209;23;20009;-75
2022/07/09 11:47:06;;;;;;;4.65;1.88;;;23.00;64.20;;;;;;6213249;23;20011;-75
2022/07/09 11:49:34;;;;;;;2.67;1.33;;;22.90;65.80;;;;;;6213382;23;20817;-74
2022/07/09 11:52:00;;;;;;;4.95;2.55;;;22.90;65.70;;;;;;6204176;23;20016;-75
2022/07/09 11:54:27;;;;;;;2.78;1.92;;;22.70;66.10;;;;;;6203319;23;20015;-74
2022/07/09 11:56:53;;;;;;;7.57;1.50;;;22.80;65.10;;;;;;6200892;23;20390;-71
2022/07/09 11:59:31;;;;;;;3.15;1.52;;;22.70;64.50;;;;;;6200372;23;20012;-73
2022/07/09 12:02:02;;;;;;;1.85;1.40;;;22.60;65.30;;;;;;6201061;23;20008;-74
2022/07/09 12:04:30;;;;;;;2.97;1.50;;;22.50;65.60;;;;;;6200029;23;20019;-75
2022/07/09 12:06:56;;;;;;;3.22;1.80;;;22.40;66.40;;;;;;6209967;23;20004;-75
2022/07/09 12:09:30;;;;;;;4.43;2.00;;;22.30;67.20;;;;;;6200356;23;20013;-75
2022/07/09 12:11:57;;;;;;;1.38;1.08;;;22.20;68.40;;;;;;6200330;23;20537;-75
2022/07/09 12:14:22;;;;;;;3.38;1.77;;;22.10;67.70;;;;;;6210129;23;20034;-75
2022/07/09 12:16:48;;;;;;;3.30;1.50;;;22.10;66.90;;;;;;6200586;23;20466;-74
2022/07/09 12:19:14;;;;;;;2.42;1.58;;;22.10;69.30;;;;;;6201727;23;20012;-77
2022/07/09 12:21:39;;;;;;;6.18;1.80;;;22.20;68.40;;;;;;6203390;23;20458;-74
2022/07/09 12:24:05;;;;;;;4.10;1.55;;;22.30;68.10;;;;;;6203439;23;20397;-72
2022/07/09 12:26:32;;;;;;;4.97;1.63;;;22.30;67.90;;;;;;6202307;23;20023;-74
2022/07/09 12:28:58;;;;;;;1.85;1.30;;;22.20;69.00;;;;;;6203336;23;20510;-74
2022/07/09 12:31:24;;;;;;;4.53;1.85;;;22.20;69.70;;;;;;6212856;23;20023;-73
2022/07/09 12:33:49;;;;;;;3.40;1.90;;;22.20;69.80;;;;;;6203604;23;20012;-73
2022/07/09 12:36:18;;;;;;;3.35;1.60;;;22.10;69.70;;;;;;6203469;23;20115;-76
2022/07/09 12:38:44;;;;;;;1.92;1.75;;;22.00;69.60;;;;;;6203313;23;20012;-74
2022/07/09 12:41:09;;;;;;;8.77;6.35;;;22.00;69.10;;;;;;6203500;23;20012;-74
2022/07/09 12:43:35;;;;;;;3.72;2.15;;;21.90;70.10;;;;;;6203892;23;20009;-74
2022/07/09 12:46:01;;;;;;;3.63;1.85;;;22.00;70.20;;;;;;6213186;23;20028;-74